Time;durP1;ratioP1;P1;durP2;ratioP2;P2;SDS_P1;SDS_P2;PMS_P1;PMS_P2;Temp;Humidity;BMP_temperature;BMP_pressure;BME280_temperature;BME280_humidity;BME280_pressure;Samples;Min_cycle;Max_cycle;Signal;HPM_P1;HPM_P2
2023/02/04 00:01:00;;;;;;;7.38;6.25;;;;;;;9.21;100.00;99363.72;4158611;28;20211;-86
2023/02/04 00:03:05;;;;;;;8.45;6.22;;;;;;;9.19;100.00;99358.59;4177252;28;20566;-86
2023/02/04 00:05:09;;;;;;;8.02;5.35;;;;;;;9.15;100.00;99362.22;4161488;28;20248;-86
2023/02/04 00:07:12;;;;;;;9.45;5.78;;;;;;;9.15;100.00;99354.41;4162046;28;20199;-86
2023/02/04 00:09:16;;;;;;;6.00;4.75;;;;;;;9.14;100.00;99350.13;4156897;28;20234;-87
2023/02/04 00:11:19;;;;;;;6.45;5.05;;;;;;;9.11;100.00;99357.19;4160262;28;20778;-87
2023/02/04 00:13:22;;;;;;;6.32;4.88;;;;;;;9.09;100.00;99359.03;4153951;28;20586;-86
2023/02/04 00:15:25;;;;;;;7.95;5.05;;;;;;;9.08;100.00;99355.59;4154778;28;20198;-86
2023/02/04 00:17:28;;;;;;;6.47;5.20;;;;;;;9.09;100.00;99354.66;4175380;28;20670;-86
2023/02/04 00:19:32;;;;;;;9.50;5.10;;;;;;;9.10;100.00;99358.13;4150404;28;20212;-87
2023/02/04 00:21:35;;;;;;;6.93;5.23;;;;;;;9.06;100.00;99360.00;4155835;28;20689;-86
2023/02/04 00:23:38;;;;;;;8.98;4.95;;;;;;;9.02;100.00;99355.84;4166151;28;21430;-86
2023/02/04 00:25:41;;;;;;;6.20;4.95;;;;;;;9.03;100.00;99364.50;4175771;28;20253;-86
2023/02/04 00:27:44;;;;;;;5.85;5.25;;;;;;;9.01;100.00;99374.13;4174219;28;20582;-86
2023/02/04 00:29:47;;;;;;;6.40;4.75;;;;;;;9.01;100.00;99369.75;4143343;28;20204;-86
2023/02/04 00:31:50;;;;;;;6.85;5.18;;;;;;;9.00;100.00;99362.84;4170950;28;20209;-86
2023/02/04 00:33:53;;;;;;;7.22;6.53;;;;;;;8.99;100.00;99357.72;4155365;28;20210;-87
2023/02/04 00:35:58;;;;;;;6.05;5.40;;;;;;;9.00;100.00;99359.41;4157050;28;20309;-86
2023/02/04 00:38:01;;;;;;;7.00;5.40;;;;;;;9.02;100.00;99362.78;4140972;28;20625;-86
2023/02/04 00:40:04;;;;;;;8.43;6.13;;;;;;;9.02;100.00;99365.38;4142549;28;20214;-86
2023/02/04 00:42:07;;;;;;;7.97;5.43;;;;;;;9.01;100.00;99369.75;4155967;28;20211;-85
2023/02/04 00:44:13;;;;;;;6.53;4.67;;;;;;;9.00;100.00;99381.06;4154947;28;20760;-86
2023/02/04 00:46:16;;;;;;;8.18;5.40;;;;;;;8.97;100.00;99377.75;4155676;28;21070;-87
2023/02/04 00:48:20;;;;;;;9.32;5.93;;;;;;;8.98;100.00;99369.88;4174210;28;20199;-87
2023/02/04 00:50:23;;;;;;;6.55;5.78;;;;;;;8.94;100.00;99378.75;4177497;28;20681;-88
2023/02/04 00:52:28;;;;;;;7.03;5.70;;;;;;;8.94;100.00;99386.56;4142100;28;20210;-90
2023/02/04 00:54:31;;;;;;;7.25;5.50;;;;;;;8.90;100.00;99385.88;4160098;28;20214;-89
2023/02/04 00:56:34;;;;;;;8.25;5.55;;;;;;;8.89;100.00;99385.03;4152983;28;20218;-89
2023/02/04 00:58:37;;;;;;;5.72;5.00;;;;;;;8.89;100.00;99389.41;4145264;28;20369;-88
2023/02/04 01:00:41;;;;;;;9.60;5.40;;;;;;;8.91;100.00;99385.81;4159448;28;20206;-88
2023/02/04 01:02:45;;;;;;;9.65;5.88;;;;;;;8.93;100.00;99390.06;4144587;28;20594;-89
2023/02/04 01:04:48;;;;;;;9.88;5.10;;;;;;;8.93;100.00;99400.47;4144963;28;20203;-88
2023/02/04 01:06:53;;;;;;;7.70;4.40;;;;;;;9.06;100.00;99401.63;4158646;28;20222;-89
2023/02/04 01:08:57;;;;;;;7.72;4.43;;;;;;;8.93;100.00;99397.84;4143769;28;20606;-88
2023/02/04 01:11:00;;;;;;;8.60;5.15;;;;;;;8.94;100.00;99399.56;4147722;28;20230;-89
2023/02/04 01:13:03;;;;;;;7.85;5.10;;;;;;;8.87;100.00;99401.59;4158827;28;20217;-89
2023/02/04 01:15:07;;;;;;;8.30;4.85;;;;;;;8.86;100.00;99407.75;4155007;28;20205;-88
2023/02/04 01:17:10;;;;;;;6.38;4.47;;;;;;;8.87;100.00;99410.28;4174304;28;20683;-89
2023/02/04 01:19:13;;;;;;;9.10;5.70;;;;;;;8.86;100.00;99424.19;4139205;28;20438;-89
2023/02/04 01:21:16;;;;;;;10.27;4.97;;;;;;;8.85;100.00;99416.44;4140068;28;20269;-89
2023/02/04 01:23:19;;;;;;;5.07;4.00;;;;;;;8.84;100.00;99425.13;4171394;28;21189;-89
2023/02/04 01:25:24;;;;;;;7.30;4.40;;;;;;;8.80;100.00;99424.44;4139244;28;20606;-89
2023/02/04 01:27:29;;;;;;;5.72;4.13;;;;;;;8.78;100.00;99439.25;4149163;28;20336;-88
2023/02/04 01:29:32;;;;;;;8.48;4.90;;;;;;;8.78;100.00;99446.19;4137417;28;20211;-89
2023/02/04 01:31:35;;;;;;;10.70;4.75;;;;;;;8.78;100.00;99433.19;4144449;28;20207;-89
2023/02/04 01:33:39;;;;;;;7.45;4.00;;;;;;;8.78;100.00;99446.19;4159283;28;20217;-88
2023/02/04 01:35:42;;;;;;;6.57;4.25;;;;;;;8.77;100.00;99439.31;4141896;28;20642;-88
2023/02/04 01:37:45;;;;;;;5.85;3.85;;;;;;;8.75;100.00;99430.72;4157379;28;20290;-88
2023/02/04 01:39:49;;;;;;;7.90;4.20;;;;;;;8.76;100.00;99432.41;4138327;28;20224;-89
2023/02/04 01:41:53;;;;;;;7.55;3.70;;;;;;;8.79;100.00;99435.72;4139483;28;20206;-89
2023/02/04 01:43:57;;;;;;;7.22;4.65;;;;;;;8.79;100.00;99442.69;4139848;28;20211;-89
2023/02/04 01:46:01;;;;;;;7.93;4.15;;;;;;;8.77;100.00;99445.34;4155339;28;20211;-88
2023/02/04 01:48:05;;;;;;;7.18;4.70;;;;;;;8.80;100.00;99441.78;4142229;28;20656;-89
2023/02/04 01:50:11;;;;;;;7.10;3.97;;;;;;;8.77;100.00;99439.31;4156125;28;20247;-89
2023/02/04 01:52:14;;;;;;;5.93;4.25;;;;;;;8.77;100.00;99442.75;4155758;28;20728;-88
2023/02/04 01:54:17;;;;;;;10.55;4.68;;;;;;;8.80;100.00;99452.19;4157594;28;21418;-92
2023/02/04 01:56:22;;;;;;;6.90;4.15;;;;;;;8.80;100.00;99440.03;4141644;28;20204;-88
2023/02/04 01:58:26;;;;;;;8.70;4.93;;;;;;;8.80;100.00;99449.59;4142735;28;20542;-88
2023/02/04 02:00:32;;;;;;;6.60;4.40;;;;;;;8.82;100.00;99450.38;4171699;28;20301;-88
2023/02/04 02:02:40;;;;;;;9.77;5.72;;;;;;;8.83;100.00;99454.69;4157778;28;21051;-89
2023/02/04 02:04:43;;;;;;;8.00;4.68;;;;;;;8.86;100.00;99464.97;4155508;28;20210;-89
2023/02/04 02:06:49;;;;;;;8.05;3.92;;;;;;;8.91;100.00;99463.00;4153048;28;20249;-88
2023/02/04 02:08:52;;;;;;;7.00;4.25;;;;;;;8.92;100.00;99470.75;4158974;28;20208;-88
2023/02/04 02:10:55;;;;;;;7.50;4.80;;;;;;;8.93;100.00;99465.50;4159434;28;20206;-88
2023/02/04 02:12:59;;;;;;;8.68;4.55;;;;;;;8.95;100.00;99453.25;4142220;28;21278;-88
2023/02/04 02:15:04;;;;;;;6.60;4.40;;;;;;;8.97;100.00;99463.59;4174083;28;20211;-87
2023/02/04 02:17:07;;;;;;;7.80;4.55;;;;;;;8.98;100.00;99468.75;4140590;28;20266;-88
2023/02/04 02:19:14;;;;;;;7.40;3.50;;;;;;;9.02;100.00;99457.31;4140448;28;20207;-89
2023/02/04 02:21:19;;;;;;;8.13;4.10;;;;;;;9.04;100.00;99470.28;4140812;28;20203;-88
2023/02/04 02:23:27;;;;;;;7.13;4.70;;;;;;;9.05;100.00;99456.34;4157116;28;20629;-88
2023/02/04 02:25:31;;;;;;;6.73;4.33;;;;;;;9.04;100.00;99452.91;4167670;28;21092;-88
2023/02/04 02:27:34;;;;;;;7.75;4.30;;;;;;;9.04;100.00;99454.66;4169022;28;20672;-89
2023/02/04 02:29:39;;;;;;;8.05;4.75;;;;;;;9.02;100.00;99459.06;4172818;28;20214;-89
2023/02/04 02:31:42;;;;;;;9.60;4.60;;;;;;;9.02;100.00;99454.72;4170757;28;20633;-89
2023/02/04 02:33:45;;;;;;;7.40;4.10;;;;;;;9.01;100.00;99457.38;4157920;28;20202;-89
2023/02/04 02:35:51;;;;;;;6.18;4.35;;;;;;;9.00;100.00;99451.31;4155275;28;20632;-88
2023/02/04 02:37:54;;;;;;;5.05;4.47;;;;;;;9.02;100.00;99454.72;4153793;28;20195;-89
2023/02/04 02:39:57;;;;;;;8.20;4.25;;;;;;;9.01;100.00;99466.03;4156539;28;20211;-88
2023/02/04 02:42:02;;;;;;;7.38;4.85;;;;;;;9.02;100.00;99467.72;4155499;28;20214;-89
2023/02/04 02:44:05;;;;;;;7.90;4.63;;;;;;;8.99;100.00;99473.06;4157641;28;20304;-89
2023/02/04 02:46:09;;;;;;;6.43;4.03;;;;;;;9.01;100.00;99479.03;4173896;28;20225;-88
2023/02/04 02:48:12;;;;;;;10.13;4.00;;;;;;;9.00;100.00;99473.91;4154148;28;20662;-89
2023/02/04 02:50:17;;;;;;;7.80;3.97;;;;;;;9.01;100.00;99479.03;4137744;28;20630;-88
2023/02/04 02:52:21;;;;;;;11.98;3.65;;;;;;;8.97;100.00;99477.44;4154106;28;20278;-88
2023/02/04 02:54:27;;;;;;;4.88;3.40;;;;;;;8.96;100.00;99478.38;4172266;28;20206;-88
2023/02/04 02:56:32;;;;;;;7.47;3.65;;;;;;;8.95;100.00;99486.25;4153319;28;20216;-88
2023/02/04 02:58:36;;;;;;;9.20;4.18;;;;;;;8.96;100.00;99494.00;4157890;28;20203;-88
2023/02/04 03:00:41;;;;;;;6.53;4.00;;;;;;;8.99;99.77;99493.00;4156606;28;20209;-88
2023/02/04 03:02:45;;;;;;;9.95;4.95;;;;;;;8.99;99.77;99504.28;4171104;28;20621;-88
2023/02/04 03:04:51;;;;;;;8.40;4.10;;;;;;;8.99;100.00;99499.06;4138385;28;20231;-88
2023/02/04 03:06:56;;;;;;;5.93;3.90;;;;;;;8.99;100.00;99500.81;4135026;28;20231;-88
2023/02/04 03:08:59;;;;;;;6.65;3.70;;;;;;;8.99;99.73;99499.06;4154470;28;21058;-89
2023/02/04 03:11:03;;;;;;;7.50;4.68;;;;;;;8.98;99.08;99507.78;4164997;28;20291;-89
2023/02/04 03:13:06;;;;;;;6.75;4.03;;;;;;;8.98;99.39;99510.38;4158557;28;20276;-88
2023/02/04 03:15:11;;;;;;;11.98;4.20;;;;;;;8.99;97.90;99519.91;4137621;28;20266;-88
2023/02/04 03:17:14;;;;;;;6.00;3.80;;;;;;;9.01;98.79;99525.03;4142513;28;20254;-89
2023/02/04 03:19:19;;;;;;;10.82;4.20;;;;;;;9.02;99.03;99519.78;4173736;28;20202;-88
2023/02/04 03:21:24;;;;;;;6.88;3.88;;;;;;;9.01;98.65;99530.25;4133845;28;20242;-89
2023/02/04 03:23:27;;;;;;;9.30;3.80;;;;;;;9.00;98.06;99534.56;4152982;28;20218;-89
2023/02/04 03:25:31;;;;;;;14.10;4.30;;;;;;;8.99;98.91;99542.44;4169279;28;20687;-88
2023/02/04 03:27:34;;;;;;;9.00;3.83;;;;;;;8.97;98.17;99550.31;4169988;28;20350;-89
2023/02/04 03:29:43;;;;;;;7.57;4.47;;;;;;;9.01;98.21;99551.88;4138683;28;20203;-88
2023/02/04 03:31:47;;;;;;;7.65;4.05;;;;;;;9.00;97.42;99555.38;4155712;28;20219;-88
2023/02/04 03:33:50;;;;;;;7.63;4.47;;;;;;;8.97;96.70;99547.69;4157774;28;20211;-88
2023/02/04 03:35:53;;;;;;;7.57;4.13;;;;;;;8.91;96.85;99543.66;4148204;28;21016;-88
2023/02/04 03:37:56;;;;;;;7.25;4.75;;;;;;;8.92;96.95;99541.84;4157406;28;21323;-89
2023/02/04 03:39:59;;;;;;;10.03;4.17;;;;;;;8.93;97.48;99548.75;4140181;28;20261;-88
2023/02/04 03:42:02;;;;;;;13.10;4.70;;;;;;;8.97;97.49;99546.88;4156562;28;20633;-88
2023/02/04 03:44:05;;;;;;;10.88;4.18;;;;;;;8.95;97.32;99544.31;4156309;28;21071;-88
2023/02/04 03:46:08;;;;;;;8.85;4.07;;;;;;;9.01;96.12;99549.28;4137928;28;20217;-88
2023/02/04 03:48:13;;;;;;;7.50;4.20;;;;;;;9.02;95.82;99553.59;4158850;28;20309;-88
2023/02/04 03:50:16;;;;;;;11.80;4.27;;;;;;;9.02;94.89;99550.13;4174667;28;20205;-89
2023/02/04 03:52:20;;;;;;;9.18;4.70;;;;;;;9.00;95.72;99551.94;4137888;28;21272;-89
2023/02/04 03:54:23;;;;;;;8.35;3.72;;;;;;;8.98;95.84;99557.22;4144217;28;20398;-88
2023/02/04 03:56:26;;;;;;;7.10;4.00;;;;;;;8.94;95.86;99553.06;4155696;28;20198;-88
2023/02/04 03:58:29;;;;;;;8.98;4.00;;;;;;;8.94;96.26;99558.25;4141778;28;20265;-88
2023/02/04 04:00:32;;;;;;;8.80;4.93;;;;;;;8.94;95.82;99558.25;4171801;28;20757;-88
2023/02/04 04:02:35;;;;;;;6.78;4.07;;;;;;;8.95;95.58;99572.09;4157464;28;20207;-88
2023/02/04 04:04:40;;;;;;;8.00;4.35;;;;;;;8.92;95.61;99555.78;4174553;28;20206;-88
2023/02/04 04:06:43;;;;;;;10.40;4.05;;;;;;;8.89;95.58;99553.28;4176985;28;20747;-88
2023/02/04 04:08:46;;;;;;;7.15;3.65;;;;;;;8.88;95.97;99542.00;4155390;28;20281;-88
2023/02/04 04:10:49;;;;;;;8.43;3.83;;;;;;;8.87;95.74;99557.69;4152893;28;20250;-88
2023/02/04 04:12:52;;;;;;;10.40;4.25;;;;;;;8.87;94.99;99553.34;4173322;28;20348;-88
2023/02/04 04:14:55;;;;;;;8.27;3.80;;;;;;;8.90;95.35;99554.97;4141376;28;20199;-88
2023/02/04 04:16:58;;;;;;;6.70;3.80;;;;;;;8.86;95.15;99558.59;4155838;28;20595;-88
2023/02/04 04:19:01;;;;;;;6.80;3.40;;;;;;;8.85;94.63;99567.31;4157317;28;20199;-88
2023/02/04 04:21:06;;;;;;;13.10;3.88;;;;;;;8.83;95.12;99564.75;4144134;28;20238;-88
2023/02/04 04:23:09;;;;;;;14.73;4.20;;;;;;;8.82;95.22;99572.63;4159650;28;20218;-88
2023/02/04 04:25:12;;;;;;;7.35;4.28;;;;;;;8.80;95.22;99577.88;4156268;28;20270;-87
2023/02/04 04:27:15;;;;;;;10.83;3.90;;;;;;;8.80;95.31;99580.47;4155948;28;20237;-88
2023/02/04 04:29:18;;;;;;;8.13;3.45;;;;;;;8.81;95.53;99586.53;4171747;28;20735;-88
2023/02/04 04:31:23;;;;;;;8.15;4.00;;;;;;;8.80;95.33;99584.84;4177155;28;20206;-88
2023/02/04 04:33:26;;;;;;;8.50;4.22;;;;;;;8.78;95.79;99589.22;4145985;28;20771;-88
2023/02/04 04:35:29;;;;;;;9.48;4.57;;;;;;;8.79;95.43;99589.19;4143876;28;20613;-88
2023/02/04 04:37:34;;;;;;;7.68;4.00;;;;;;;8.80;95.45;99590.06;4173790;28;20686;-88
2023/02/04 04:39:37;;;;;;;11.57;4.18;;;;;;;8.81;94.71;99591.72;4142043;28;20207;-88
2023/02/04 04:41:40;;;;;;;10.82;4.38;;;;;;;8.83;95.13;99598.56;4176926;28;20217;-88
2023/02/04 04:43:43;;;;;;;10.35;4.00;;;;;;;8.83;94.53;99600.34;4179441;28;20726;-89
2023/02/04 04:45:46;;;;;;;8.80;4.35;;;;;;;8.83;94.15;99600.34;4141342;28;20564;-88
2023/02/04 04:47:50;;;;;;;11.00;4.13;;;;;;;8.82;94.27;99604.66;4170963;28;20210;-88
2023/02/04 04:49:53;;;;;;;7.25;3.90;;;;;;;8.81;94.27;99603.00;4142292;28;20238;-88
2023/02/04 04:51:56;;;;;;;8.35;3.70;;;;;;;8.83;94.17;99613.34;4160834;28;20724;-88
2023/02/04 04:54:00;;;;;;;6.00;3.67;;;;;;;8.83;94.34;99610.75;4159591;28;20203;-88
2023/02/04 04:56:04;;;;;;;9.03;4.13;;;;;;;8.85;94.36;99607.16;4171723;28;20242;-88
2023/02/04 04:58:08;;;;;;;5.70;4.10;;;;;;;8.81;94.30;99609.94;4157896;28;20647;-88
2023/02/04 05:00:16;;;;;;;7.07;3.80;;;;;;;8.77;94.70;99601.41;4153406;28;20653;-88
2023/02/04 05:02:19;;;;;;;7.05;4.00;;;;;;;8.77;94.96;99605.78;4160801;28;20202;-88
2023/02/04 05:04:22;;;;;;;8.02;3.83;;;;;;;8.76;94.68;99599.69;4158006;28;20218;-88
2023/02/04 05:06:25;;;;;;;5.90;4.18;;;;;;;8.72;94.55;99600.75;4140487;28;20299;-87
2023/02/04 05:08:28;;;;;;;27.77;17.52;;;;;;;8.64;93.44;99602.75;4157736;28;20295;-88
2023/02/04 05:10:33;;;;;;;23.45;16.20;;;;;;;8.60;93.96;99602.91;4158409;28;20207;-88
2023/02/04 05:12:36;;;;;;;23.92;14.15;;;;;;;8.57;94.23;99601.28;4144069;28;20226;-88
2023/02/04 05:14:39;;;;;;;26.17;13.75;;;;;;;8.55;93.30;99597.03;4156098;28;20257;-88
2023/02/04 05:16:42;;;;;;;23.57;13.20;;;;;;;8.55;93.70;99599.63;4153200;28;20230;-88
2023/02/04 05:18:45;;;;;;;13.45;7.80;;;;;;;8.53;94.05;99599.69;4158661;28;20629;-87
2023/02/04 05:20:48;;;;;;;14.43;8.00;;;;;;;8.49;94.01;99595.53;4142768;28;20659;-87
2023/02/04 05:22:51;;;;;;;14.18;5.72;;;;;;;8.47;93.21;99593.88;4143257;28;20219;-87
2023/02/04 05:24:54;;;;;;;8.30;5.20;;;;;;;8.43;93.47;99605.28;4159206;28;20648;-88
2023/02/04 05:26:58;;;;;;;10.13;5.20;;;;;;;8.39;93.64;99602.84;4170660;28;20620;-87
2023/02/04 05:29:04;;;;;;;6.70;4.20;;;;;;;8.36;93.41;99616.81;4175775;28;20343;-88
2023/02/04 05:31:07;;;;;;;14.80;6.13;;;;;;;8.30;92.69;99609.22;4139344;28;20243;-87
2023/02/04 05:33:11;;;;;;;8.63;4.00;;;;;;;8.24;92.70;99613.78;4174171;28;20206;-88
2023/02/04 05:35:14;;;;;;;8.45;3.92;;;;;;;8.20;92.46;99612.19;4141417;28;20215;-88
2023/02/04 05:37:19;;;;;;;9.85;3.80;;;;;;;8.17;91.97;99620.09;4154115;28;20214;-88
2023/02/04 05:39:22;;;;;;;10.60;4.63;;;;;;;8.12;90.81;99611.63;4155329;28;20285;-88
2023/02/04 05:41:25;;;;;;;9.43;3.63;;;;;;;8.09;91.34;99602.13;4157075;28;20250;-87
2023/02/04 05:43:30;;;;;;;7.55;3.45;;;;;;;8.09;91.82;99601.31;4140938;28;20211;-87
2023/02/04 05:45:33;;;;;;;10.40;4.22;;;;;;;8.07;91.59;99596.16;4154688;28;20215;-87
2023/02/04 05:47:36;;;;;;;10.73;3.63;;;;;;;8.05;92.06;99595.34;4174449;28;20214;-88
2023/02/04 05:49:39;;;;;;;10.88;4.60;;;;;;;8.01;90.96;99603.28;4138372;28;20242;-88
2023/02/04 05:51:42;;;;;;;9.02;3.80;;;;;;;7.99;90.49;99598.16;4158159;28;20206;-87
2023/02/04 05:53:46;;;;;;;10.40;3.90;;;;;;;7.98;90.18;99593.88;4173982;28;20252;-88
2023/02/04 05:55:49;;;;;;;10.38;3.83;;;;;;;7.95;89.99;99595.69;4171760;28;20198;-88
2023/02/04 05:57:52;;;;;;;8.82;3.55;;;;;;;7.93;88.89;99596.69;4136583;28;20208;-88
2023/02/04 05:59:56;;;;;;;9.07;3.92;;;;;;;7.88;90.38;99608.94;4154428;28;20214;-88
2023/02/04 06:01:59;;;;;;;8.88;4.63;;;;;;;7.87;90.05;99607.28;4140468;28;20612;-88
2023/02/04 06:04:02;;;;;;;12.02;4.18;;;;;;;7.88;89.70;99619.34;4142807;28;20223;-88
2023/02/04 06:06:06;;;;;;;10.70;4.40;;;;;;;7.88;90.46;99635.78;4172491;28;20206;-88
2023/02/04 06:08:09;;;;;;;8.98;4.00;;;;;;;7.88;89.89;99633.19;4152657;28;20230;-88
2023/02/04 06:10:12;;;;;;;12.68;4.75;;;;;;;7.89;91.19;99631.44;4154953;28;20227;-88
2023/02/04 06:12:16;;;;;;;10.07;5.32;;;;;;;7.89;90.72;99634.88;4152470;28;20595;-88
2023/02/04 06:14:18;;;;;;;14.55;5.65;;;;;;;7.89;90.16;99641.81;4155037;28;20277;-88
2023/02/04 06:16:23;;;;;;;8.85;4.20;;;;;;;7.88;90.10;99640.97;4153658;28;20752;-87
2023/02/04 06:18:26;;;;;;;7.93;3.70;;;;;;;7.89;91.21;99647.00;4160270;28;20211;-88
2023/02/04 06:20:29;;;;;;;11.35;4.55;;;;;;;7.87;90.97;99652.25;4159335;28;20641;-88
2023/02/04 06:22:33;;;;;;;17.80;6.35;;;;;;;7.87;89.50;99654.03;4157606;28;20447;-88
2023/02/04 06:24:36;;;;;;;14.38;7.03;;;;;;;7.86;89.43;99660.09;4158281;28;20325;-88
2023/02/04 06:26:39;;;;;;;12.73;7.45;;;;;;;7.86;90.37;99662.69;4171947;28;20241;-88
2023/02/04 06:28:42;;;;;;;15.52;6.07;;;;;;;7.82;90.22;99663.69;4176230;28;20865;-87
2023/02/04 06:30:45;;;;;;;13.00;5.25;;;;;;;7.80;90.10;99662.91;4153783;28;20202;-88
2023/02/04 06:32:50;;;;;;;8.63;3.88;;;;;;;7.78;90.32;99672.50;4160310;28;20694;-88
2023/02/04 06:34:53;;;;;;;10.52;4.70;;;;;;;7.77;89.88;99675.97;4157407;28;20300;-89
2023/02/04 06:36:56;;;;;;;13.27;5.15;;;;;;;7.74;88.46;99673.47;4172183;28;20209;-89
2023/02/04 06:38:59;;;;;;;10.20;5.10;;;;;;;7.71;89.12;99673.56;4153669;28;20206;-87
2023/02/04 06:41:02;;;;;;;8.18;4.40;;;;;;;7.70;90.31;99664.94;4170225;28;20212;-87
2023/02/04 06:43:05;;;;;;;12.40;4.95;;;;;;;7.67;88.44;99677.19;4140809;28;21046;-87
2023/02/04 06:45:08;;;;;;;8.93;4.68;;;;;;;7.65;89.20;99677.22;4137779;28;20224;-87
2023/02/04 06:47:11;;;;;;;11.95;4.05;;;;;;;7.62;88.76;99690.31;4155749;28;20210;-87
2023/02/04 06:49:16;;;;;;;10.63;4.13;;;;;;;7.60;89.94;99691.25;4141040;28;20214;-87
2023/02/04 06:51:19;;;;;;;15.52;6.13;;;;;;;7.54;89.53;99694.03;4172372;28;20249;-87
2023/02/04 06:53:22;;;;;;;15.48;7.93;;;;;;;7.49;89.53;99693.31;4141476;28;20632;-87
2023/02/04 06:55:25;;;;;;;13.60;7.10;;;;;;;7.50;88.62;99697.59;4140250;28;20210;-87
2023/02/04 06:57:28;;;;;;;12.65;5.80;;;;;;;7.49;89.07;99695.91;4155539;28;20199;-87
2023/02/04 06:59:31;;;;;;;17.88;6.40;;;;;;;7.47;89.64;99695.09;4137005;28;20676;-87
2023/02/04 07:01:34;;;;;;;11.80;6.00;;;;;;;7.47;88.46;99697.69;4154113;28;20917;-87
2023/02/04 07:03:37;;;;;;;17.73;6.82;;;;;;;7.48;89.73;99690.78;4170928;28;20289;-87
2023/02/04 07:05:42;;;;;;;13.40;5.40;;;;;;;7.51;89.18;99697.53;4136388;28;20277;-87
2023/02/04 07:07:46;;;;;;;9.55;5.03;;;;;;;7.54;88.84;99699.22;4151425;28;20240;-87
2023/02/04 07:09:49;;;;;;;14.65;6.55;;;;;;;7.54;89.25;99712.19;4139589;28;20224;-88
2023/02/04 07:11:52;;;;;;;13.43;5.65;;;;;;;7.49;90.31;99719.28;4174622;28;20246;-87
2023/02/04 07:13:55;;;;;;;11.60;6.70;;;;;;;7.42;89.24;99716.91;4137461;28;20234;-87
2023/02/04 07:15:59;;;;;;;11.05;4.75;;;;;;;7.36;88.38;99719.69;4153699;28;20639;-87
2023/02/04 07:18:02;;;;;;;10.02;5.18;;;;;;;7.30;90.12;99720.69;4133676;28;20232;-88
2023/02/04 07:20:06;;;;;;;9.38;5.10;;;;;;;7.33;89.37;99727.56;4154393;28;20721;-88
2023/02/04 07:22:10;;;;;;;6.60;4.65;;;;;;;7.35;89.07;99733.53;4157064;28;20222;-88
2023/02/04 07:24:13;;;;;;;9.80;4.95;;;;;;;7.37;89.16;99731.78;4169199;28;20745;-88
2023/02/04 07:26:16;;;;;;;12.82;4.60;;;;;;;7.47;89.65;99741.81;4171635;28;20214;-88
2023/02/04 07:28:20;;;;;;;13.80;4.68;;;;;;;7.55;89.56;99745.06;4155184;28;20650;-88
2023/02/04 07:30:23;;;;;;;12.63;5.53;;;;;;;7.60;90.54;99744.00;4142509;28;20675;-87
2023/02/04 07:32:26;;;;;;;12.48;4.88;;;;;;;7.63;89.77;99751.69;4142258;28;20210;-87
2023/02/04 07:34:29;;;;;;;11.85;3.72;;;;;;;7.72;89.82;99760.97;4177678;28;20653;-87
2023/02/04 07:36:32;;;;;;;10.05;3.63;;;;;;;7.74;88.57;99759.16;4175877;28;20572;-87
2023/02/04 07:38:37;;;;;;;11.30;3.13;;;;;;;7.75;87.84;99763.47;4141053;28;20649;-87
2023/02/04 07:40:40;;;;;;;13.05;3.88;;;;;;;7.74;88.31;99759.16;4156111;28;20672;-87
2023/02/04 07:42:43;;;;;;;9.65;4.38;;;;;;;7.75;88.05;99768.66;4137785;28;20294;-87
2023/02/04 07:44:51;;;;;;;8.80;4.75;;;;;;;7.70;89.80;99766.19;4141530;28;20261;-88
2023/02/04 07:46:55;;;;;;;12.10;6.00;;;;;;;7.65;89.53;99762.03;4174847;28;20289;-86
2023/02/04 07:48:58;;;;;;;9.23;5.90;;;;;;;7.54;89.58;99764.09;4175339;28;20300;-85
2023/02/04 07:51:02;;;;;;;10.55;4.75;;;;;;;7.46;88.85;99762.63;4154800;28;20235;-84
2023/02/04 07:53:05;;;;;;;8.40;4.32;;;;;;;7.38;89.70;99765.47;4139586;28;20215;-84
2023/02/04 07:55:09;;;;;;;9.60;4.72;;;;;;;7.34;90.09;99766.44;4168713;28;20336;-84
2023/02/04 07:57:12;;;;;;;12.63;5.30;;;;;;;7.31;90.28;99765.69;4140396;28;20708;-83
2023/02/04 07:59:15;;;;;;;14.45;5.20;;;;;;;7.29;89.00;99770.91;4150003;28;20222;-82
2023/02/04 08:01:18;;;;;;;14.73;6.03;;;;;;;7.26;90.60;99775.31;4157036;28;20747;-83
2023/02/04 08:03:21;;;;;;;11.90;5.60;;;;;;;7.29;90.60;99789.09;4155847;28;20209;-82
2023/02/04 08:05:24;;;;;;;20.95;10.73;;;;;;;7.33;89.40;99792.44;4141166;28;20215;-83
2023/02/04 08:07:27;;;;;;;16.88;7.85;;;;;;;7.35;89.65;99794.09;4140313;28;20233;-83
2023/02/04 08:09:30;;;;;;;19.30;10.65;;;;;;;7.36;89.38;99797.53;4157313;28;20698;-85
2023/02/04 08:11:35;;;;;;;11.52;5.30;;;;;;;7.35;89.57;99794.09;4170874;28;20728;-84
2023/02/04 08:13:38;;;;;;;7.82;4.60;;;;;;;7.34;91.60;99797.56;4140088;28;20254;-85
2023/02/04 08:15:41;;;;;;;14.25;4.90;;;;;;;7.37;89.81;99801.84;4173038;28;20347;-83
2023/02/04 08:17:44;;;;;;;13.98;5.50;;;;;;;7.40;91.47;99804.34;4156006;28;20926;-82
2023/02/04 08:19:47;;;;;;;13.77;4.75;;;;;;;7.43;91.78;99812.00;4158110;28;20195;-82
2023/02/04 08:21:50;;;;;;;15.57;4.95;;;;;;;7.45;90.84;99816.28;4175385;28;20198;-82
2023/02/04 08:23:53;;;;;;;8.63;4.70;;;;;;;7.49;91.05;99818.75;4169095;28;20198;-82
2023/02/04 08:25:56;;;;;;;10.70;4.93;;;;;;;7.53;91.89;99824.69;4177220;28;20202;-82
2023/02/04 08:28:01;;;;;;;10.75;4.75;;;;;;;7.56;91.96;99829.78;4151743;28;20642;-82
2023/02/04 08:30:05;;;;;;;10.20;5.13;;;;;;;7.56;91.63;99825.47;4170266;28;20695;-81
2023/02/04 08:32:08;;;;;;;9.70;5.13;;;;;;;7.59;92.00;99825.38;4155197;28;20779;-84
2023/02/04 08:34:12;;;;;;;10.85;4.95;;;;;;;7.58;92.46;99833.22;4155834;28;20203;-82
2023/02/04 08:36:14;;;;;;;10.35;4.78;;;;;;;7.60;92.23;99837.44;4156252;28;20653;-83
2023/02/04 08:38:18;;;;;;;12.18;4.35;;;;;;;7.63;91.60;99839.97;4172406;28;20297;-83
2023/02/04 08:40:21;;;;;;;9.38;4.40;;;;;;;7.67;91.46;99838.16;4157205;28;20289;-82
2023/02/04 08:42:24;;;;;;;7.85;4.65;;;;;;;7.71;90.89;99844.94;4143908;28;20310;-83
2023/02/04 08:44:28;;;;;;;25.40;4.95;;;;;;;7.77;90.49;99839.56;4176467;28;20209;-84
2023/02/04 08:46:31;;;;;;;11.73;4.88;;;;;;;7.82;90.47;99837.66;4153037;28;20743;-82
2023/02/04 08:48:34;;;;;;;11.02;4.57;;;;;;;7.88;91.43;99840.09;4177059;28;20644;-82
2023/02/04 08:50:38;;;;;;;18.45;7.45;;;;;;;7.92;90.61;99837.34;4142032;28;20239;-83
2023/02/04 08:52:41;;;;;;;15.25;6.70;;;;;;;8.02;90.48;99846.59;4161555;28;20276;-83
2023/02/04 08:54:44;;;;;;;15.57;6.60;;;;;;;7.99;92.01;99847.53;4173889;28;20826;-84
2023/02/04 08:56:47;;;;;;;13.27;7.82;;;;;;;8.04;92.98;99847.38;4146537;28;20208;-84
2023/02/04 08:58:51;;;;;;;15.02;7.97;;;;;;;8.12;91.83;99859.28;4152039;28;20225;-84
2023/02/04 09:00:56;;;;;;;14.50;8.32;;;;;;;8.15;92.49;99867.00;4155319;28;20223;-83
2023/02/04 09:02:59;;;;;;;18.35;9.73;;;;;;;8.20;91.34;99861.66;4156823;28;20636;-84
2023/02/04 09:05:02;;;;;;;25.02;12.00;;;;;;;8.25;92.01;99863.19;4173080;28;20513;-84
2023/02/04 09:07:04;;;;;;;26.67;15.40;;;;;;;8.26;91.26;99862.31;4169926;28;20858;-83
2023/02/04 09:09:08;;;;;;;32.25;17.42;;;;;;;8.27;91.36;99865.75;4149544;28;20213;-84
2023/02/04 09:11:11;;;;;;;31.17;15.48;;;;;;;8.28;90.74;99863.09;4156525;28;20233;-82
2023/02/04 09:13:14;;;;;;;33.70;15.45;;;;;;;8.33;91.49;99873.34;4157827;28;20372;-84
2023/02/04 09:15:17;;;;;;;18.13;10.30;;;;;;;8.35;90.58;99871.59;4169294;28;20211;-84
2023/02/04 09:17:21;;;;;;;23.27;12.18;;;;;;;8.33;89.97;99871.63;4176332;28;20214;-84
2023/02/04 09:19:25;;;;;;;31.35;16.30;;;;;;;8.34;89.91;99878.50;4178186;28;20220;-85
2023/02/04 09:21:28;;;;;;;35.45;17.48;;;;;;;8.37;89.69;99887.97;4155316;28;20278;-85
2023/02/04 09:23:32;;;;;;;28.30;14.23;;;;;;;8.41;90.18;99893.03;4155922;28;20706;-84
2023/02/04 09:25:34;;;;;;;25.40;12.05;;;;;;;8.44;89.48;99896.38;4157145;28;20668;-84
2023/02/04 09:27:37;;;;;;;25.95;11.23;;;;;;;8.45;88.70;99900.69;4171010;28;20212;-84
2023/02/04 09:29:40;;;;;;;23.48;9.70;;;;;;;8.47;88.94;99898.03;4170779;28;20217;-84
2023/02/04 09:31:43;;;;;;;19.15;7.15;;;;;;;8.48;88.54;99900.59;4174852;28;20292;-84
2023/02/04 09:33:48;;;;;;;14.32;7.25;;;;;;;8.54;89.30;99905.59;4159734;28;20615;-84
2023/02/04 09:35:51;;;;;;;14.82;8.52;;;;;;;8.60;89.72;99910.63;4138021;28;20727;-83
2023/02/04 09:37:54;;;;;;;21.75;7.50;;;;;;;8.65;90.26;99910.47;4135124;28;20261;-83
2023/02/04 09:39:57;;;;;;;19.23;8.70;;;;;;;8.70;89.67;99912.00;4151332;28;20288;-83
2023/02/04 09:42:00;;;;;;;15.57;9.20;;;;;;;8.75;90.31;99910.13;4136701;28;20282;-84